createdAt,value
2019-04-24T00:01:51.065Z,14.44
2019-04-24T00:04:23.113Z,14.40
2019-04-24T00:06:54.007Z,14.31
2019-04-24T00:09:12.712Z,14.48
2019-04-24T00:11:51.515Z,14.16
2019-04-24T00:14:27.393Z,13.92
2019-04-24T00:16:51.711Z,13.65
2019-04-24T00:19:14.290Z,13.82
2019-04-24T00:21:45.478Z,13.53
2019-04-24T00:24:15.799Z,13.59
2019-04-24T00:31:35.689Z,13.15
2019-04-24T00:34:07.919Z,12.91
2019-04-24T00:38:59.061Z,12.47
2019-04-24T00:48:36.543Z,13.24
2019-04-24T00:53:44.556Z,12.62
2019-04-24T00:56:03.402Z,12.32
2019-04-24T00:58:37.599Z,12.30
2019-04-24T01:01:22.526Z,12.30
2019-04-24T01:03:44.121Z,12.11
2019-04-24T01:08:29.075Z,11.89
2019-04-24T01:13:27.919Z,11.89
2019-04-24T01:16:08.596Z,11.81
2019-04-24T01:18:24.366Z,11.84
2019-04-24T01:20:51.692Z,11.66
2019-04-24T01:23:18.614Z,11.73
2019-04-24T01:26:06.899Z,11.95
2019-04-24T01:28:21.765Z,11.89
2019-04-24T01:33:33.523Z,11.72
2019-04-24T01:38:35.979Z,12.00
2019-04-24T01:41:07.488Z,12.05
2019-04-24T01:46:04.509Z,11.73
2019-04-24T01:50:52.370Z,11.91
2019-04-24T01:53:19.017Z,12.04
2019-04-24T01:56:03.792Z,12.29
2019-04-24T01:58:14.172Z,11.89
2019-04-24T02:03:01.137Z,12.05
2019-04-24T02:05:26.463Z,11.85
2019-04-24T02:08:16.534Z,11.85
2019-04-24T02:15:32.451Z,11.69
2019-04-24T02:18:00.438Z,11.60
2019-04-24T02:22:57.931Z,11.50
2019-04-24T02:28:01.902Z,11.62
2019-04-24T02:30:37.742Z,11.70
2019-04-24T02:35:36.836Z,12.17
2019-04-24T02:37:53.430Z,12.00
2019-04-24T02:45:46.746Z,11.75
2019-04-24T02:50:20.216Z,11.87
2019-04-24T02:57:41.713Z,12.88
2019-04-24T03:00:47.619Z,12.97
2019-04-24T03:10:18.868Z,12.34
2019-04-24T03:17:37.864Z,12.88
2019-04-24T03:19:57.615Z,12.43
2019-04-24T03:25:14.790Z,12.51
2019-04-24T03:32:59.746Z,12.33
2019-04-24T03:35:18.846Z,12.30
2019-04-24T03:47:21.417Z,11.95
2019-04-24T03:49:49.832Z,11.98
2019-04-24T03:55:15.480Z,12.21
2019-04-24T03:57:33.276Z,12.19
2019-04-24T04:00:14.898Z,12.34
2019-04-24T04:09:52.723Z,12.04
2019-04-24T04:12:25.236Z,11.89
2019-04-24T04:15:02.632Z,11.98
2019-04-24T04:19:48.886Z,12.27
2019-04-24T04:22:18.317Z,12.43
2019-04-24T04:27:34.530Z,12.32
2019-04-24T04:29:45.802Z,12.71
2019-04-24T04:35:02.361Z,12.34
2019-04-24T04:37:40.442Z,11.96
2019-04-24T04:40:10.647Z,11.79
2019-04-24T04:42:52.210Z,11.83
2019-04-24T04:45:05.764Z,12.23
2019-04-24T04:47:45.104Z,12.30
2019-04-24T04:50:33.896Z,12.12
2019-04-24T04:53:13.491Z,12.69
2019-04-24T05:06:10.800Z,13.70
2019-04-24T05:08:36.477Z,14.33
2019-04-24T05:10:24.484Z,14.25
2019-04-24T05:20:20.926Z,14.69
2019-04-24T05:30:31.017Z,16.39
2019-04-24T05:38:34.644Z,16.26
2019-04-24T05:43:23.262Z,16.17
2019-04-24T05:45:46.028Z,16.39
2019-04-24T05:51:02.662Z,15.11
2019-04-24T05:53:17.057Z,14.59
2019-04-24T05:56:00.102Z,14.09
2019-04-24T05:58:19.685Z,14.07
2019-04-24T06:01:00.607Z,14.19
2019-04-24T06:03:53.668Z,14.69
2019-04-24T06:06:17.337Z,15.21
2019-04-24T06:11:17.661Z,16.88
2019-04-24T06:13:43.535Z,16.98
2019-04-24T06:16:22.867Z,17.17
2019-04-24T06:19:10.380Z,17.15
2019-04-24T06:26:40.007Z,16.81
2019-04-24T06:31:51.832Z,16.86
2019-04-24T06:36:23.380Z,17.82
2019-04-24T06:38:53.573Z,18.03
2019-04-24T06:41:37.112Z,18.61
2019-04-24T06:46:36.109Z,18.82
2019-04-24T06:54:01.347Z,19.51
2019-04-24T06:58:56.694Z,20.74
2019-04-24T07:01:29.955Z,20.94
2019-04-24T07:12:09.105Z,19.74
2019-04-24T07:14:34.236Z,19.72
2019-04-24T07:17:20.965Z,19.67
2019-04-24T07:19:40.906Z,20.32
2019-04-24T07:22:04.404Z,19.58
2019-04-24T07:24:41.706Z,19.03
2019-04-24T07:27:00.364Z,18.51
2019-04-24T07:29:36.996Z,18.88
2019-04-24T07:32:15.830Z,19.04
2019-04-24T07:36:55.508Z,19.42
2019-04-24T07:39:45.912Z,19.71
2019-04-24T07:42:08.220Z,19.77
2019-04-24T07:44:29.562Z,20.25
2019-04-24T07:47:01.234Z,19.09
2019-04-24T07:59:57.570Z,20.64
2019-04-24T08:04:44.185Z,21.61
2019-04-24T08:07:06.913Z,21.32
2019-04-24T08:17:17.721Z,21.86
2019-04-24T08:19:54.607Z,21.03
2019-04-24T08:24:52.351Z,21.56
2019-04-24T08:27:08.314Z,22.12
2019-04-24T08:29:32.258Z,22.62
2019-04-24T08:34:35.823Z,23.28
2019-04-24T08:36:53.372Z,23.72
2019-04-24T08:39:34.009Z,23.50
2019-04-24T08:42:22.453Z,22.57
2019-04-24T08:44:37.709Z,22.90
2019-04-24T08:47:03.834Z,22.03
2019-04-24T08:54:18.990Z,21.76
2019-04-24T08:57:15.039Z,21.18
2019-04-24T09:02:08.407Z,21.17
2019-04-24T09:07:00.556Z,21.94
2019-04-24T09:09:53.583Z,22.60
2019-04-24T09:12:58.516Z,23.00
2019-04-24T09:14:51.423Z,22.94
2019-04-24T09:17:25.433Z,23.67
2019-04-24T09:20:00.914Z,24.07
2019-04-24T09:22:24.322Z,23.78
2019-04-24T09:27:43.965Z,23.76
2019-04-24T09:33:16.878Z,24.22
2019-04-24T09:35:04.642Z,24.62
2019-04-24T09:37:29.395Z,24.40
2019-04-24T09:40:27.760Z,24.78
2019-04-24T09:42:56.712Z,25.31
2019-04-24T09:45:03.439Z,24.96
2019-04-24T09:47:28.211Z,24.13
2019-04-24T09:49:51.050Z,24.86
2019-04-24T09:52:22.794Z,25.16
2019-04-24T09:54:55.025Z,24.65
2019-04-24T09:57:20.802Z,24.80
2019-04-24T10:04:59.451Z,24.18
2019-04-24T10:09:58.238Z,24.86
2019-04-24T10:17:10.112Z,24.30
2019-04-24T10:20:01.216Z,24.42
2019-04-24T10:22:39.645Z,24.61
2019-04-24T10:25:05.250Z,24.57
2019-04-24T10:27:36.595Z,24.34
2019-04-24T10:29:53.058Z,24.13
2019-04-24T10:42:52.140Z,24.47
2019-04-24T10:45:27.246Z,24.40
2019-04-24T10:50:36.051Z,24.93
2019-04-24T10:53:11.103Z,25.40
2019-04-24T10:55:37.527Z,24.88
2019-04-24T11:00:27.981Z,24.71
2019-04-24T11:03:00.999Z,25.02
2019-04-24T11:05:40.554Z,24.52
2019-04-24T11:10:44.182Z,24.43
2019-04-24T11:13:22.184Z,24.86
2019-04-24T11:19:04.699Z,25.31
2019-04-24T11:23:42.270Z,24.50
2019-04-24T11:26:18.995Z,24.47
2019-04-24T11:31:17.871Z,24.44
2019-04-24T11:34:11.180Z,24.44
2019-04-24T11:36:48.762Z,24.47
2019-04-24T11:39:15.973Z,25.18
2019-04-24T11:41:40.814Z,24.69
2019-04-24T11:44:11.477Z,24.54
2019-04-24T11:47:06.804Z,24.16
2019-04-24T11:49:21.307Z,24.52
2019-04-24T11:54:09.641Z,24.62
2019-04-24T11:59:18.910Z,24.62
2019-04-24T12:02:20.254Z,24.69
2019-04-24T12:09:40.239Z,24.66
2019-04-24T12:14:41.435Z,24.38
2019-04-24T12:17:02.854Z,24.59
2019-04-24T12:22:15.336Z,24.15
2019-04-24T12:24:41.524Z,24.43
2019-04-24T12:26:57.201Z,25.09
2019-04-24T12:29:35.406Z,24.98
2019-04-24T12:32:06.473Z,25.16
2019-04-24T12:37:08.183Z,25.23
2019-04-24T12:39:27.256Z,24.66
2019-04-24T12:41:53.538Z,25.33
2019-04-24T12:52:03.811Z,25.69
2019-04-24T12:54:51.130Z,25.91
2019-04-24T12:57:12.053Z,26.00
2019-04-24T13:02:13.201Z,26.60
2019-04-24T13:04:55.759Z,26.31
2019-04-24T13:07:07.330Z,25.72
2019-04-24T13:09:49.673Z,25.57
2019-04-24T13:12:44.095Z,25.24
2019-04-24T13:15:08.924Z,24.87
2019-04-24T13:17:35.385Z,25.15
2019-04-24T13:21:57.155Z,25.44
2019-04-24T13:24:43.130Z,25.21
2019-04-24T13:27:24.681Z,25.18
2019-04-24T13:30:02.490Z,25.67
2019-04-24T13:32:55.090Z,26.06
2019-04-24T13:35:13.561Z,25.81
2019-04-24T13:37:50.556Z,25.92
2019-04-24T13:40:03.108Z,25.78
2019-04-24T13:42:33.559Z,25.80
2019-04-24T13:45:18.813Z,25.63
2019-04-24T13:47:25.954Z,25.94
2019-04-24T13:50:03.863Z,26.07
2019-04-24T13:55:16.447Z,26.27
2019-04-24T13:57:15.465Z,26.40
2019-04-24T13:59:52.585Z,26.16
2019-04-24T14:02:09.820Z,26.13
2019-04-24T14:04:28.376Z,26.16
2019-04-24T14:07:11.557Z,25.79
2019-04-24T14:14:35.990Z,25.85
2019-04-24T14:16:48.505Z,25.94
2019-04-24T14:21:57.835Z,25.55
2019-04-24T14:26:54.989Z,25.83
2019-04-24T14:29:14.528Z,25.74
2019-04-24T14:31:44.953Z,25.73
2019-04-24T14:34:15.138Z,25.73
2019-04-24T14:36:44.352Z,25.86
2019-04-24T14:39:13.410Z,25.72
2019-04-24T14:44:22.672Z,25.98
2019-04-24T14:46:49.848Z,26.45
2019-04-24T14:49:21.783Z,26.58
2019-04-24T14:51:41.502Z,26.73
2019-04-24T14:56:30.539Z,26.40
2019-04-24T14:59:02.398Z,26.32
2019-04-24T15:01:29.630Z,25.94
2019-04-24T15:03:53.026Z,26.02
2019-04-24T15:06:22.446Z,25.94
2019-04-24T15:08:55.817Z,26.14
2019-04-24T15:11:10.339Z,26.48
2019-04-24T15:16:37.137Z,26.11
2019-04-24T15:18:38.271Z,26.44
2019-04-24T15:21:04.032Z,26.55
2019-04-24T15:28:20.367Z,26.19
2019-04-24T15:30:50.990Z,25.96
2019-04-24T15:33:16.649Z,25.42
2019-04-24T15:36:01.069Z,25.36
2019-04-24T15:38:09.215Z,25.33
2019-04-24T15:43:13.332Z,21.23
2019-04-24T15:45:35.167Z,19.87
2019-04-24T15:52:21.934Z,18.09
2019-04-24T15:54:48.666Z,17.74
2019-04-24T15:57:17.044Z,17.63
2019-04-24T16:00:09.488Z,17.25
2019-04-24T16:02:57.673Z,17.07
2019-04-24T16:04:54.221Z,16.77
2019-04-24T16:07:08.265Z,16.68
2019-04-24T16:09:36.201Z,16.33
2019-04-24T16:12:03.009Z,16.11
2019-04-24T16:14:53.342Z,16.23
2019-04-24T16:19:52.618Z,16.27
2019-04-24T16:22:16.307Z,14.73
2019-04-24T16:27:14.343Z,12.90
2019-04-24T16:29:58.501Z,12.24
2019-04-24T16:32:26.166Z,12.44
2019-04-24T16:34:29.762Z,12.70
2019-04-24T16:37:03.192Z,12.68
2019-04-24T16:39:26.457Z,12.72
2019-04-24T16:42:07.388Z,12.63
2019-04-24T16:46:49.971Z,12.63
2019-04-24T16:54:12.655Z,12.55
2019-04-24T16:56:44.849Z,12.52
2019-04-24T17:13:50.827Z,12.37
2019-04-24T17:16:32.620Z,12.37
2019-04-24T17:21:29.915Z,12.38
2019-04-24T17:31:07.872Z,12.36
2019-04-24T17:33:22.874Z,12.42
2019-04-24T17:35:59.889Z,12.27
2019-04-24T17:38:00.075Z,12.14
2019-04-24T17:40:28.640Z,11.95
2019-04-24T17:43:17.063Z,11.77
2019-04-24T17:50:38.227Z,11.76
2019-04-24T17:53:15.035Z,11.59
2019-04-24T17:55:35.496Z,11.53
2019-04-24T17:57:46.337Z,11.45
2019-04-24T18:00:04.077Z,11.44
2019-04-24T18:02:31.147Z,11.37
2019-04-24T18:04:57.065Z,11.34
2019-04-24T18:07:23.803Z,11.38
2019-04-24T18:09:52.000Z,11.37
2019-04-24T18:12:17.289Z,11.35
2019-04-24T18:14:44.026Z,11.40
2019-04-24T18:17:11.427Z,11.27
2019-04-24T18:19:37.497Z,11.33
2019-04-24T18:22:04.960Z,11.17
2019-04-24T18:24:36.804Z,11.22
2019-04-24T18:27:03.598Z,11.19
2019-04-24T18:29:31.907Z,11.25
2019-04-24T18:31:57.058Z,11.35
2019-04-24T18:34:23.782Z,11.24
2019-04-24T18:36:51.596Z,11.29
2019-04-24T18:39:17.244Z,11.39
2019-04-24T18:41:43.993Z,11.57
2019-04-24T18:44:12.028Z,11.73
2019-04-24T18:46:37.458Z,11.74
2019-04-24T18:49:04.436Z,11.89
2019-04-24T18:51:31.354Z,11.89
2019-04-24T18:53:57.669Z,11.54
2019-04-24T18:56:24.428Z,11.48
2019-04-24T18:58:51.976Z,11.43
2019-04-24T19:01:17.966Z,11.66
2019-04-24T19:03:44.825Z,11.47
2019-04-24T19:06:25.932Z,11.40
2019-04-24T19:08:38.302Z,11.42
2019-04-24T19:11:05.018Z,11.46
2019-04-24T19:13:32.129Z,11.39
2019-04-24T19:15:58.478Z,11.59
2019-04-24T19:18:25.223Z,11.94
2019-04-24T19:20:51.942Z,11.96
2019-04-24T19:23:18.710Z,12.00
2019-04-24T19:25:45.609Z,11.82
2019-04-24T19:28:15.689Z,11.58
2019-04-24T19:30:39.258Z,11.26
2019-04-24T19:33:06.006Z,11.24
2019-04-24T19:35:32.804Z,11.15
2019-04-24T19:38:01.256Z,11.36
2019-04-24T19:40:36.767Z,11.17
2019-04-24T19:42:53.186Z,11.12
2019-04-24T19:45:20.031Z,11.33
2019-04-24T19:47:46.761Z,11.50
2019-04-24T19:50:14.394Z,11.78
2019-04-24T19:52:41.311Z,11.52
2019-04-24T19:55:06.996Z,11.75
2019-04-24T19:57:33.766Z,11.43
2019-04-24T20:00:01.935Z,11.50
2019-04-24T20:02:27.454Z,11.51
2019-04-24T20:04:54.198Z,11.41
2019-04-24T20:07:21.250Z,10.99
2019-04-24T20:10:11.503Z,10.85
2019-04-24T20:12:38.166Z,11.10
2019-04-24T20:15:04.925Z,11.45
2019-04-24T20:17:31.984Z,11.44
2019-04-24T20:19:58.385Z,11.37
2019-04-24T20:22:25.123Z,11.78
2019-04-24T20:24:52.462Z,11.92
2019-04-24T20:27:18.582Z,11.29
2019-04-24T20:29:45.321Z,11.70
2019-04-24T20:32:12.587Z,11.74
2019-04-24T20:34:38.839Z,11.46
2019-04-24T20:37:05.554Z,10.69
2019-04-24T20:39:32.297Z,10.62
2019-04-24T20:41:59.089Z,10.31
2019-04-24T20:44:25.941Z,10.69
2019-04-24T20:46:52.575Z,10.39
2019-04-24T20:49:19.880Z,10.22
2019-04-24T20:51:46.030Z,10.29
2019-04-24T20:54:12.826Z,10.16
2019-04-24T20:56:41.350Z,10.10
2019-04-24T20:59:06.305Z,10.64
2019-04-24T21:01:33.024Z,10.19
2019-04-24T21:03:59.755Z,10.26
2019-04-24T21:06:33.191Z,10.16
2019-04-24T21:09:18.568Z,10.09
2019-04-24T21:11:42.038Z,10.78
2019-04-24T21:14:08.770Z,10.46
2019-04-24T21:16:35.605Z,10.97
2019-04-24T21:19:02.343Z,10.53
2019-04-24T21:21:31.757Z,10.60
2019-04-24T21:23:56.852Z,11.19
2019-04-24T21:26:24.552Z,10.84
2019-04-24T21:28:51.631Z,10.37
2019-04-24T21:31:17.035Z,10.45
2019-04-24T21:33:43.778Z,10.26
2019-04-24T21:36:12.203Z,10.29
2019-04-24T21:38:37.214Z,9.98
2019-04-24T21:41:03.941Z,9.58
2019-04-24T21:43:33.241Z,9.48
2019-04-24T21:45:57.402Z,9.34
2019-04-24T21:48:24.454Z,9.48
2019-04-24T21:50:50.885Z,9.68
2019-04-24T21:53:17.605Z,9.39
2019-04-24T21:55:44.362Z,9.21
2019-04-24T21:58:12.005Z,9.14
2019-04-24T22:00:43.709Z,8.91
2019-04-24T22:03:11.730Z,8.62
2019-04-24T22:05:41.594Z,8.76
2019-04-24T22:08:08.325Z,8.84
2019-04-24T22:10:35.301Z,8.89
2019-04-24T22:13:02.181Z,8.99
2019-04-24T22:15:28.952Z,9.28
2019-04-24T22:17:55.502Z,9.37
2019-04-24T22:20:27.990Z,10.09
2019-04-24T22:23:01.975Z,10.47
2019-04-24T22:25:38.463Z,9.88
2019-04-24T22:28:05.190Z,10.24
2019-04-24T22:30:37.742Z,9.26
2019-04-24T22:33:04.461Z,9.13
2019-04-24T22:35:33.858Z,9.10
2019-04-24T22:38:00.443Z,8.84
2019-04-24T22:40:33.405Z,8.41
2019-04-24T22:42:58.586Z,8.60
2019-04-24T22:45:25.335Z,8.72
2019-04-24T22:47:52.160Z,8.81
2019-04-24T22:50:18.785Z,8.83
2019-04-24T22:52:45.501Z,8.89
2019-04-24T22:55:14.970Z,9.01
2019-04-24T22:57:42.538Z,9.06
2019-04-24T23:00:08.426Z,8.79
2019-04-24T23:02:35.340Z,8.78
2019-04-24T23:05:01.895Z,8.80
2019-04-24T23:07:28.684Z,8.57
2019-04-24T23:09:55.410Z,8.44
2019-04-24T23:12:22.147Z,8.48
2019-04-24T23:14:48.869Z,8.69
2019-04-24T23:17:15.614Z,8.59
2019-04-24T23:19:42.749Z,8.65
2019-04-24T23:22:22.366Z,8.81
2019-04-24T23:24:56.972Z,8.72
2019-04-24T23:27:42.332Z,8.54
2019-04-24T23:30:13.215Z,8.48
2019-04-24T23:32:48.134Z,8.51
2019-04-24T23:35:14.865Z,8.52
2019-04-24T23:37:44.078Z,8.52
2019-04-24T23:40:08.359Z,8.66
2019-04-24T23:42:36.046Z,8.38
2019-04-24T23:45:02.450Z,8.34
2019-04-24T23:47:28.609Z,8.24
2019-04-24T23:49:55.337Z,8.13
2019-04-24T23:52:22.090Z,8.14
2019-04-24T23:55:02.503Z,8.27
2019-04-24T23:57:15.673Z,9.07
2019-04-24T23:59:44.961Z,8.70
